Time;durP1;ratioP1;P1;durP2;ratioP2;P2;SDS_P1;SDS_P2;PMS_P1;PMS_P2;Temp;Humidity;BMP_temperature;BMP_pressure;BME280_temperature;BME280_humidity;BME280_pressure;Samples;Min_cycle;Max_cycle;Signal;HPM_P1;HPM_P2
2023/01/21 00:01:26;;;;;;;29.75;14.18;;;;;;;4.15;73.86;99309.66;4246957;33;33096;-81
2023/01/21 00:03:53;;;;;;;24.15;12.63;;;;;;;4.58;72.23;99312.31;4260067;33;34809;-79
2023/01/21 00:06:21;;;;;;;21.52;10.77;;;;;;;4.49;72.74;99315.19;4258738;33;33653;-81
2023/01/21 00:08:48;;;;;;;27.95;13.70;;;;;;;4.74;71.37;99308.97;4260156;33;33608;-83
2023/01/21 00:11:16;;;;;;;19.35;10.52;;;;;;;4.59;72.71;99305.50;4259932;33;33443;-84
2023/01/21 00:13:43;;;;;;;25.83;13.43;;;;;;;4.73;70.61;99314.87;4259941;33;34535;-82
2023/01/21 00:16:12;;;;;;;25.52;13.68;;;;;;;4.52;71.90;99312.81;4259935;33;33584;-82
2023/01/21 00:18:40;;;;;;;24.83;14.07;;;;;;;5.33;68.64;99315.84;4247157;33;34202;-82
2023/01/21 00:21:07;;;;;;;24.37;12.10;;;;;;;5.39;68.54;99313.66;4258250;33;33728;-79
2023/01/21 00:23:35;;;;;;;24.45;11.90;;;;;;;5.93;66.25;99324.38;4259810;33;34614;-82
2023/01/21 00:26:04;;;;;;;25.85;13.30;;;;;;;6.44;64.82;99324.56;4256720;33;34563;-81
2023/01/21 00:28:34;;;;;;;24.10;12.32;;;;;;;6.28;64.45;99322.87;4259931;33;33357;-79
2023/01/21 00:31:04;;;;;;;21.12;12.02;;;;;;;6.03;64.40;99326.69;4259687;33;34484;-81
2023/01/21 00:33:32;;;;;;;23.35;12.25;;;;;;;5.97;65.16;99326.34;4257017;33;33666;-79
2023/01/21 00:36:04;;;;;;;19.92;9.50;;;;;;;5.91;65.46;99332.00;4261227;33;33821;-82
2023/01/21 00:38:32;;;;;;;22.83;11.25;;;;;;;5.52;66.40;99325.47;4258980;33;34201;-82
2023/01/21 00:41:08;;;;;;;26.05;12.10;;;;;;;5.29;67.74;99316.47;4263074;33;34082;-77
2023/01/21 00:43:38;;;;;;;26.62;13.25;;;;;;;4.88;69.37;99328.63;4259556;33;34561;-80
2023/01/21 00:46:06;;;;;;;27.65;13.38;;;;;;;4.55;71.42;99331.75;4247208;33;34511;-79
2023/01/21 00:48:34;;;;;;;25.33;12.02;;;;;;;5.24;68.78;99313.63;4259780;33;33383;-79
2023/01/21 00:51:02;;;;;;;40.50;21.48;;;;;;;4.62;69.85;99321.09;4246930;33;34573;-83
2023/01/21 00:53:32;;;;;;;38.53;17.83;;;;;;;4.56;70.33;99313.91;4259912;33;33759;-78
2023/01/21 00:56:11;;;;;;;32.47;16.50;;;;;;;4.77;70.22;99319.44;4259416;33;33743;-81
2023/01/21 00:58:42;;;;;;;27.33;15.18;;;;;;;4.45;71.39;99313.25;4258859;33;34541;-80
2023/01/21 01:01:12;;;;;;;28.73;14.30;;;;;;;4.76;70.62;99315.09;4259830;33;32985;-78
2023/01/21 01:03:41;;;;;;;28.20;14.25;;;;;;;4.19;72.24;99315.87;4259542;33;33309;-80
2023/01/21 01:06:18;;;;;;;27.27;14.38;;;;;;;4.46;71.60;99309.91;4242207;33;34410;-81
2023/01/21 01:08:48;;;;;;;28.77;15.38;;;;;;;4.45;71.49;99312.34;4253466;33;33227;-80
2023/01/21 01:11:16;;;;;;;30.40;15.80;;;;;;;4.12;72.43;99312.94;4243943;33;33361;-79
2023/01/21 01:13:43;;;;;;;27.08;14.30;;;;;;;3.54;74.54;99316.94;4259271;33;34052;-78
2023/01/21 01:16:13;;;;;;;29.00;14.60;;;;;;;5.22;69.58;99314.34;4259529;33;34038;-81
2023/01/21 01:18:41;;;;;;;28.65;16.20;;;;;;;4.90;71.28;99331.31;4260455;33;33099;-80
2023/01/21 01:21:14;;;;;;;26.75;13.75;;;;;;;3.73;72.95;99330.13;4259624;33;34033;-80
2023/01/21 01:23:42;;;;;;;26.67;13.15;;;;;;;1.87;81.65;99339.69;4248053;33;33887;-82
2023/01/21 01:26:13;;;;;;;26.20;14.43;;;;;;;4.33;75.29;99331.31;4261388;33;33489;-79
2023/01/21 01:28:41;;;;;;;26.25;14.77;;;;;;;3.79;76.19;99326.19;4261254;33;32736;-78
2023/01/21 01:31:11;;;;;;;27.15;13.85;;;;;;;3.64;76.27;99337.22;4258551;33;33890;-78
2023/01/21 01:33:39;;;;;;;28.48;15.63;;;;;;;4.79;73.32;99327.19;4261100;33;33788;-80
2023/01/21 01:36:12;;;;;;;24.45;13.02;;;;;;;7.00;63.51;99318.03;4261357;33;33956;-80
2023/01/21 01:38:40;;;;;;;23.40;12.77;;;;;;;3.83;72.73;99320.47;4261427;33;34120;-81
2023/01/21 01:41:08;;;;;;;23.42;12.95;;;;;;;5.56;68.48;99316.28;4259270;33;32326;-82
2023/01/21 01:43:49;;;;;;;22.17;12.18;;;;;;;6.50;64.41;99310.34;4260687;33;34060;-78
2023/01/21 01:46:17;;;;;;;22.13;12.07;;;;;;;5.28;70.56;99313.00;4255603;33;34463;-80
2023/01/21 01:48:49;;;;;;;21.90;12.93;;;;;;;3.12;76.63;99323.56;4261279;33;33596;-79
2023/01/21 01:51:20;;;;;;;24.12;12.93;;;;;;;5.73;67.80;99310.41;4255802;33;33541;-78
2023/01/21 01:53:47;;;;;;;23.38;12.55;;;;;;;6.67;64.15;99312.94;4248026;33;34086;-79
2023/01/21 01:56:15;;;;;;;13.98;8.27;;;;;;;6.36;64.59;99313.00;4266198;33;33821;-81
2023/01/21 01:58:43;;;;;;;20.08;9.73;;;;;;;7.18;60.97;99303.50;4256909;33;33237;-80
2023/01/21 02:01:10;;;;;;;22.65;9.90;;;;;;;7.04;61.96;99307.09;4261363;33;33149;-78
2023/01/21 02:03:43;;;;;;;18.73;9.98;;;;;;;6.79;61.95;99313.56;4260098;33;33994;-81
2023/01/21 02:06:12;;;;;;;18.15;10.32;;;;;;;6.58;63.88;99307.28;4263389;33;34016;-78
2023/01/21 02:08:40;;;;;;;20.17;10.18;;;;;;;5.65;67.95;99309.97;4260052;33;33533;-80
2023/01/21 02:11:16;;;;;;;21.45;10.25;;;;;;;5.69;65.63;99311.91;4255834;33;34492;-79
2023/01/21 02:13:56;;;;;;;21.83;11.70;;;;;;;4.13;71.21;99308.69;4261245;33;33702;-80
2023/01/21 02:16:36;;;;;;;19.30;10.68;;;;;;;7.04;63.01;99299.37;4261267;33;34438;-79
2023/01/21 02:19:44;;;;;;;21.90;11.00;;;;;;;6.09;66.64;99301.28;4247411;33;33547;-78
2023/01/21 02:22:33;;;;;;;19.42;10.98;;;;;;;5.00;70.96;99312.19;4261421;33;33769;-77
2023/01/21 02:25:29;;;;;;;22.10;11.55;;;;;;;7.78;59.90;99298.69;4261255;33;33997;-80
2023/01/21 02:28:07;;;;;;;19.33;11.75;;;;;;;3.32;74.36;99320.66;4248251;33;32184;-81
2023/01/21 02:30:58;;;;;;;19.55;10.55;;;;;;;5.51;69.51;99313.44;4260696;33;33424;-78
2023/01/21 02:33:40;;;;;;;20.25;10.80;;;;;;;6.74;63.76;99309.88;4250421;33;33681;-82
2023/01/21 02:36:32;;;;;;;22.48;12.40;;;;;;;6.65;64.34;99306.81;4261226;33;34604;-78
2023/01/21 02:39:05;;;;;;;44.75;22.65;;;;;;;4.52;68.60;99317.97;4231440;33;34472;-82
2023/01/21 02:41:39;;;;;;;20.67;11.20;;;;;;;5.91;66.28;99321.72;4257594;33;33892;-80
2023/01/21 02:44:34;;;;;;;25.35;11.55;;;;;;;4.48;71.53;99330.47;4260688;33;33995;-79
2023/01/21 02:47:23;;;;;;;23.52;10.43;;;;;;;5.74;67.21;99321.56;4260914;33;33780;-82
2023/01/21 02:50:12;;;;;;;27.02;14.77;;;;;;;5.53;67.88;99319.56;4247989;33;32937;-81
2023/01/21 02:52:40;;;;;;;24.23;12.57;;;;;;;5.06;69.82;99316.03;4260967;33;34051;-79
2023/01/21 02:55:13;;;;;;;26.23;13.07;;;;;;;4.41;72.22;99307.84;4260219;33;33781;-80
2023/01/21 02:57:48;;;;;;;24.00;12.55;;;;;;;3.81;74.92;99299.00;4247970;33;34460;-79
2023/01/21 03:00:54;;;;;;;22.92;11.93;;;;;;;4.74;70.99;99306.41;4247467;33;33168;-83
2023/01/21 03:03:31;;;;;;;23.48;11.82;;;;;;;4.56;72.33;99303.66;4255858;33;34176;-79
2023/01/21 03:06:36;;;;;;;40.80;20.67;;;;;;;4.06;74.23;99304.88;4260544;33;33961;-78
2023/01/21 03:09:24;;;;;;;30.15;15.90;;;;;;;3.86;75.10;99295.03;4260928;33;34657;-80
2023/01/21 03:12:02;;;;;;;35.92;19.20;;;;;;;3.70;75.34;99288.94;4252673;33;33668;-78
2023/01/21 03:17:51;;;;;;;29.58;14.27;;;;;;;4.87;71.21;99300.34;4258298;33;33798;-79
2023/01/21 03:20:38;;;;;;;29.40;14.40;;;;;;;5.16;69.77;99304.62;4259753;33;34292;-79
2023/01/21 03:23:10;;;;;;;28.45;13.55;;;;;;;5.81;67.39;99303.12;4248026;33;34131;-80
2023/01/21 03:25:39;;;;;;;26.60;14.87;;;;;;;5.00;71.03;99322.47;4247602;33;33558;-78
2023/01/21 03:28:10;;;;;;;23.58;12.85;;;;;;;5.39;69.27;99312.72;4248107;33;34764;-80
2023/01/21 03:30:43;;;;;;;22.60;11.65;;;;;;;6.66;64.00;99308.56;4257200;33;34556;-82
2023/01/21 03:33:11;;;;;;;29.63;14.85;;;;;;;4.81;68.58;99313.69;4248185;33;33832;-80
2023/01/21 03:35:42;;;;;;;29.08;14.52;;;;;;;4.81;69.93;99311.12;4251755;33;33408;-79
2023/01/21 03:38:34;;;;;;;30.92;14.23;;;;;;;3.53;75.91;99325.38;4253519;33;35542;-81
2023/01/21 03:41:13;;;;;;;32.75;15.20;;;;;;;3.44;76.00;99328.25;4266809;33;34328;-79
2023/01/21 03:43:40;;;;;;;30.98;15.25;;;;;;;4.16;75.67;99331.97;4259739;33;33428;-81
2023/01/21 03:46:13;;;;;;;31.52;16.65;;;;;;;3.24;80.71;99344.84;4260774;33;34141;-79
2023/01/21 03:48:43;;;;;;;36.88;17.05;;;;;;;3.44;77.37;99347.81;4260545;33;33465;-79
2023/01/21 03:51:15;;;;;;;39.87;18.47;;;;;;;2.64;79.65;99345.06;4260430;33;34317;-79
2023/01/21 03:53:43;;;;;;;39.38;17.95;;;;;;;4.58;75.13;99344.75;4250167;33;33943;-80
2023/01/21 03:56:11;;;;;;;31.75;15.68;;;;;;;6.15;66.73;99344.47;4247303;33;33334;-80
2023/01/21 03:58:38;;;;;;;30.98;14.93;;;;;;;6.76;63.64;99338.25;4260348;33;34767;-78
2023/01/21 04:01:06;;;;;;;26.08;14.38;;;;;;;7.13;62.34;99346.19;4259981;33;33670;-78
2023/01/21 04:03:34;;;;;;;28.50;15.63;;;;;;;3.19;76.12;99356.47;4260362;33;34005;-78
2023/01/21 04:06:01;;;;;;;31.70;15.57;;;;;;;3.37;76.78;99363.59;4260893;33;33527;-80
2023/01/21 04:08:29;;;;;;;34.45;16.52;;;;;;;3.19;77.19;99361.59;4260285;33;32333;-78
2023/01/21 04:10:57;;;;;;;30.85;16.10;;;;;;;2.29;81.81;99376.75;4260492;33;33838;-79
2023/01/21 04:13:24;;;;;;;31.15;15.55;;;;;;;3.48;79.07;99383.13;4260110;33;32698;-78
2023/01/21 04:15:51;;;;;;;32.47;15.18;;;;;;;3.54;77.58;99379.28;4260081;33;34329;-78
2023/01/21 04:18:19;;;;;;;35.17;17.20;;;;;;;4.07;74.32;99372.38;4259788;33;34589;-81
2023/01/21 04:20:46;;;;;;;32.45;16.05;;;;;;;5.01;72.31;99380.72;4260117;33;34004;-80
2023/01/21 04:23:14;;;;;;;28.73;15.43;;;;;;;3.27;77.27;99383.47;4260161;33;33806;-79
2023/01/21 04:25:41;;;;;;;29.33;14.00;;;;;;;3.24;78.29;99393.47;4260181;33;34077;-81
2023/01/21 04:28:09;;;;;;;30.67;15.50;;;;;;;3.32;79.59;99396.56;4260503;33;34096;-80
2023/01/21 04:30:36;;;;;;;29.10;15.50;;;;;;;4.58;74.93;99389.28;4260199;33;34756;-78
2023/01/21 04:33:04;;;;;;;30.02;15.02;;;;;;;6.99;64.24;99381.56;4247700;33;34025;-79
2023/01/21 04:35:34;;;;;;;30.98;15.05;;;;;;;7.33;61.82;99377.22;4260182;33;33962;-78
2023/01/21 04:38:02;;;;;;;27.17;13.98;;;;;;;7.52;60.49;99382.50;4260029;33;33989;-79
2023/01/21 04:40:29;;;;;;;20.08;11.18;;;;;;;7.61;60.31;99385.56;4260064;33;33912;-81
2023/01/21 04:42:57;;;;;;;23.92;13.02;;;;;;;6.85;62.30;99398.81;4260028;33;33979;-78
2023/01/21 04:45:24;;;;;;;28.30;14.32;;;;;;;7.21;61.78;99405.84;4260297;33;34331;-78
2023/01/21 04:47:52;;;;;;;27.92;13.10;;;;;;;5.38;68.31;99409.47;4259845;33;33942;-79
2023/01/21 04:50:19;;;;;;;28.77;14.15;;;;;;;6.72;64.04;99409.25;4259825;33;33998;-79
2023/01/21 04:52:47;;;;;;;27.52;13.50;;;;;;;6.50;64.34;99407.22;4259359;33;33926;-79
2023/01/21 04:55:14;;;;;;;24.98;13.05;;;;;;;6.92;62.81;99402.62;4259535;33;34158;-79
2023/01/21 04:57:42;;;;;;;22.25;12.00;;;;;;;6.76;64.11;99406.09;4262278;33;33853;-78
2023/01/21 05:00:11;;;;;;;23.85;12.13;;;;;;;7.00;62.33;99406.47;4259887;33;34051;-79
2023/01/21 05:02:39;;;;;;;23.33;11.63;;;;;;;6.60;63.95;99398.31;4259604;33;33965;-79
2023/01/21 05:05:07;;;;;;;22.95;11.48;;;;;;;6.02;65.52;99412.31;4259430;33;33378;-79
2023/01/21 05:07:34;;;;;;;26.92;12.70;;;;;;;6.40;64.84;99411.00;4259696;33;34069;-78
2023/01/21 05:10:02;;;;;;;22.73;12.30;;;;;;;6.20;65.05;99422.75;4259487;33;33873;-78
2023/01/21 05:12:30;;;;;;;22.98;11.57;;;;;;;6.32;65.02;99421.66;4259246;33;34490;-80
2023/01/21 05:14:57;;;;;;;22.83;10.38;;;;;;;6.06;65.61;99419.38;4259639;33;33582;-80
2023/01/21 05:17:25;;;;;;;23.90;10.68;;;;;;;5.48;67.66;99431.44;4259564;33;33936;-79
2023/01/21 05:19:52;;;;;;;24.40;12.20;;;;;;;4.86;69.59;99417.47;4259535;33;33990;-80
2023/01/21 05:22:20;;;;;;;25.95;12.85;;;;;;;4.90;70.36;99428.81;4259235;33;33630;-80
2023/01/21 05:24:48;;;;;;;24.37;11.98;;;;;;;4.50;71.74;99422.13;4259602;33;33387;-79
2023/01/21 05:27:15;;;;;;;29.58;14.25;;;;;;;4.50;72.41;99434.97;4255008;33;33510;-79
2023/01/21 05:29:43;;;;;;;27.98;14.13;;;;;;;4.58;71.25;99432.88;4259666;33;33463;-79
2023/01/21 05:32:10;;;;;;;26.30;12.15;;;;;;;5.36;69.55;99441.88;4259471;33;33474;-83
2023/01/21 05:34:38;;;;;;;24.50;11.75;;;;;;;5.36;68.67;99441.88;4259555;33;33462;-80
2023/01/21 05:37:05;;;;;;;25.70;12.75;;;;;;;5.71;67.62;99443.94;4245621;33;33454;-79
2023/01/21 05:39:33;;;;;;;24.02;11.02;;;;;;;5.30;68.70;99442.38;4259211;33;33592;-77
2023/01/21 05:42:00;;;;;;;25.88;12.77;;;;;;;5.07;69.63;99437.56;4259169;33;33139;-79
2023/01/21 05:44:28;;;;;;;26.10;12.88;;;;;;;5.35;69.14;99444.34;4257839;33;33635;-78
2023/01/21 05:46:56;;;;;;;26.62;12.98;;;;;;;5.56;68.16;99449.88;4259107;33;33151;-81
2023/01/21 05:49:23;;;;;;;28.30;13.70;;;;;;;5.39;67.75;99451.44;4259089;33;34781;-81
2023/01/21 05:51:50;;;;;;;27.83;13.60;;;;;;;6.01;66.49;99456.84;4259216;33;34212;-80
2023/01/21 05:54:18;;;;;;;23.90;12.63;;;;;;;6.24;65.46;99445.28;4246254;33;33186;-81
2023/01/21 05:56:45;;;;;;;26.00;12.07;;;;;;;6.45;64.26;99437.87;4259213;33;34253;-78
2023/01/21 05:59:13;;;;;;;26.23;12.18;;;;;;;6.50;64.33;99451.84;4259117;33;33870;-80
2023/01/21 06:01:40;;;;;;;27.90;11.80;;;;;;;7.13;62.40;99448.31;4259009;33;33658;-80
2023/01/21 06:04:08;;;;;;;25.30;12.45;;;;;;;7.38;61.02;99455.62;4258852;33;33553;-79
2023/01/21 06:06:36;;;;;;;24.75;12.02;;;;;;;7.41;60.21;99461.84;4260856;33;33521;-81
2023/01/21 06:09:03;;;;;;;27.62;13.52;;;;;;;5.28;66.38;99477.38;4261195;33;34831;-81
2023/01/21 06:11:31;;;;;;;29.83;14.40;;;;;;;6.68;64.04;99479.41;4260780;33;34106;-79
2023/01/21 06:13:58;;;;;;;25.77;13.48;;;;;;;7.03;62.05;99477.84;4260948;33;32420;-79
2023/01/21 06:16:26;;;;;;;29.83;13.90;;;;;;;7.67;60.83;99468.34;4260567;33;33642;-82
2023/01/21 06:18:54;;;;;;;23.52;13.43;;;;;;;7.69;59.33;99473.59;4261247;33;34590;-81
2023/01/21 06:21:21;;;;;;;25.50;12.43;;;;;;;7.63;58.96;99474.16;4260185;33;33690;-81
2023/01/21 06:23:48;;;;;;;24.02;12.45;;;;;;;7.67;59.78;99480.34;4247537;33;33614;-81
2023/01/21 06:26:16;;;;;;;21.70;11.45;;;;;;;7.13;59.99;99480.13;4259653;33;34565;-81
2023/01/21 06:28:44;;;;;;;22.02;11.95;;;;;;;6.81;62.45;99486.12;4261333;33;33597;-78
2023/01/21 06:31:11;;;;;;;25.10;12.45;;;;;;;5.52;65.04;99495.03;4261194;33;33932;-81
2023/01/21 06:33:39;;;;;;;23.33;12.05;;;;;;;7.46;59.93;99487.88;4260503;33;34130;-82
2023/01/21 06:36:07;;;;;;;22.30;13.13;;;;;;;7.79;58.82;99500.72;4260685;33;34453;-80
2023/01/21 06:38:35;;;;;;;29.15;14.43;;;;;;;4.90;68.22;99510.97;4249392;33;33595;-80
2023/01/21 06:41:02;;;;;;;24.48;12.30;;;;;;;5.65;67.06;99512.97;4259565;33;33654;-79
2023/01/21 06:43:30;;;;;;;26.15;13.15;;;;;;;6.07;65.86;99515.44;4252940;33;33242;-78
2023/01/21 06:45:57;;;;;;;23.60;12.80;;;;;;;7.82;59.26;99512.06;4258765;33;33943;-81
2023/01/21 06:48:25;;;;;;;24.55;12.95;;;;;;;6.45;64.14;99512.50;4260748;33;33562;-81
2023/01/21 06:50:52;;;;;;;22.83;13.15;;;;;;;7.62;61.13;99510.16;4260989;33;33912;-80
2023/01/21 06:53:20;;;;;;;28.10;14.35;;;;;;;7.68;60.15;99501.03;4260385;33;33611;-81
2023/01/21 06:55:48;;;;;;;26.45;14.50;;;;;;;8.15;58.74;99516.25;4260983;33;33751;-81
2023/01/21 06:58:15;;;;;;;25.48;13.62;;;;;;;6.45;64.07;99512.50;4261412;33;33846;-82
2023/01/21 07:00:43;;;;;;;24.37;12.93;;;;;;;8.32;58.39;99515.38;4260409;33;34152;-82
2023/01/21 07:03:11;;;;;;;25.20;11.88;;;;;;;9.20;55.05;99510.09;4260538;33;33295;-79
2023/01/21 07:05:38;;;;;;;21.23;11.45;;;;;;;8.66;55.80;99511.91;4260186;33;34354;-78
2023/01/21 07:08:07;;;;;;;25.83;12.70;;;;;;;7.93;57.27;99514.31;4260172;33;34674;-79
2023/01/21 07:10:34;;;;;;;25.30;12.57;;;;;;;7.24;60.41;99519.31;4252427;33;251704;-81
2023/01/21 07:13:02;;;;;;;26.95;12.90;;;;;;;8.08;58.46;99526.28;4260609;33;34008;-82
2023/01/21 07:15:29;;;;;;;25.83;13.10;;;;;;;8.40;57.08;99520.91;4260056;33;33321;-82
2023/01/21 07:17:57;;;;;;;24.48;12.75;;;;;;;5.84;64.50;99544.91;4259483;33;33991;-78
2023/01/21 07:20:25;;;;;;;26.90;14.57;;;;;;;4.48;71.39;99554.53;4260409;33;34682;-81
2023/01/21 07:22:52;;;;;;;26.05;13.07;;;;;;;5.17;69.70;99552.84;4260609;33;33315;-78
2023/01/21 07:25:20;;;;;;;23.77;12.63;;;;;;;5.51;68.18;99560.06;4259280;33;33887;-78
2023/01/21 07:27:47;;;;;;;29.37;13.75;;;;;;;5.45;68.88;99575.13;4247767;33;34669;-78
2023/01/21 07:30:19;;;;;;;25.30;13.05;;;;;;;5.10;70.17;99577.28;4259105;33;32128;-82
2023/01/21 07:32:47;;;;;;;29.58;14.50;;;;;;;6.44;66.26;99581.87;4235990;33;33493;-80
2023/01/21 07:35:14;;;;;;;26.37;14.13;;;;;;;6.31;65.54;99598.25;4247384;33;33591;-81
2023/01/21 07:37:42;;;;;;;29.83;14.73;;;;;;;6.54;65.63;99596.13;4260380;33;33870;-82
2023/01/21 07:40:10;;;;;;;25.75;14.60;;;;;;;6.77;64.93;99588.03;4260293;33;33482;-79
2023/01/21 07:42:38;;;;;;;25.85;14.00;;;;;;;5.86;66.99;99597.28;4260016;33;33761;-78
2023/01/21 07:45:06;;;;;;;26.27;13.68;;;;;;;5.37;69.77;99596.84;4260531;33;34351;-78
2023/01/21 07:47:33;;;;;;;30.67;15.82;;;;;;;5.81;68.17;99594.44;4248695;33;32385;-82
2023/01/21 07:50:03;;;;;;;33.47;17.80;;;;;;;4.76;72.40;99604.16;4259532;33;33471;-80
2023/01/21 07:52:31;;;;;;;29.80;15.77;;;;;;;5.31;70.33;99608.53;4259181;33;33776;-81
2023/01/21 07:55:00;;;;;;;27.45;14.45;;;;;;;5.26;70.44;99604.78;4257156;33;33850;-82
2023/01/21 07:57:27;;;;;;;30.17;15.75;;;;;;;6.20;67.58;99609.59;4260277;33;34002;-82
2023/01/21 07:59:55;;;;;;;27.77;15.48;;;;;;;5.41;69.45;99620.28;4260036;33;33366;-83
2023/01/21 08:02:23;;;;;;;29.90;14.40;;;;;;;5.55;69.14;99618.56;4257700;33;33267;-81
2023/01/21 08:04:51;;;;;;;28.30;15.25;;;;;;;5.49;69.70;99628.47;4259973;33;33541;-80
2023/01/21 08:07:18;;;;;;;25.05;14.32;;;;;;;5.32;70.51;99624.84;4247159;33;32389;-80
2023/01/21 08:09:46;;;;;;;29.45;14.43;;;;;;;6.14;67.23;99622.97;4259290;33;33904;-79
2023/01/21 08:12:13;;;;;;;28.17;14.60;;;;;;;5.59;69.68;99620.53;4258413;33;34216;-78
2023/01/21 08:14:41;;;;;;;29.10;15.27;;;;;;;5.78;69.31;99624.22;4260009;33;33465;-77
2023/01/21 08:17:08;;;;;;;26.92;14.82;;;;;;;8.43;59.40;99609.75;4259367;33;34623;-78
2023/01/21 08:19:36;;;;;;;28.70;14.87;;;;;;;6.65;64.00;99629.41;4247546;33;33431;-80
2023/01/21 08:22:03;;;;;;;27.83;15.63;;;;;;;8.69;58.26;99609.28;4257404;33;34158;-81
2023/01/21 08:24:31;;;;;;;25.73;14.00;;;;;;;8.58;56.97;99617.38;4259628;33;33759;-80
2023/01/21 08:26:59;;;;;;;27.67;14.57;;;;;;;7.96;59.96;99618.50;4245311;33;34221;-80
2023/01/21 08:29:27;;;;;;;27.42;13.35;;;;;;;6.89;64.11;99611.91;4246469;33;34349;-80
2023/01/21 08:31:54;;;;;;;25.00;13.77;;;;;;;9.15;56.30;99612.37;4259680;33;34411;-80
2023/01/21 08:34:22;;;;;;;24.95;12.95;;;;;;;8.75;56.64;99618.22;4259630;33;33241;-81
2023/01/21 08:36:49;;;;;;;21.55;11.27;;;;;;;9.17;56.06;99615.91;4259815;33;34537;-79
2023/01/21 08:39:17;;;;;;;23.77;12.00;;;;;;;8.44;57.77;99621.88;4259912;33;32642;-79
2023/01/21 08:41:44;;;;;;;22.83;12.82;;;;;;;7.91;59.47;99634.56;4258783;33;33645;-78
2023/01/21 08:44:12;;;;;;;24.10;13.65;;;;;;;7.43;61.34;99640.63;4257644;33;33823;-79
2023/01/21 08:46:39;;;;;;;27.50;15.05;;;;;;;6.89;63.12;99650.53;4259556;33;34319;-80
2023/01/21 08:49:07;;;;;;;31.20;14.95;;;;;;;5.81;66.88;99647.53;4259952;33;33682;-79
2023/01/21 08:51:34;;;;;;;25.48;14.73;;;;;;;5.68;69.24;99641.66;4260130;33;34371;-83
2023/01/21 08:54:06;;;;;;;25.60;14.23;;;;;;;5.99;67.08;99642.63;4259450;33;34385;-83
2023/01/21 08:56:34;;;;;;;26.85;13.80;;;;;;;6.66;66.16;99646.66;4256669;33;33934;-80
2023/01/21 08:59:02;;;;;;;29.67;17.35;;;;;;;6.85;64.91;99643.41;4247134;33;33685;-81
2023/01/21 09:01:29;;;;;;;31.27;16.75;;;;;;;5.60;69.80;99641.94;4258785;33;33373;-80
2023/01/21 09:03:59;;;;;;;34.15;18.00;;;;;;;5.46;70.66;99643.69;4259818;33;34412;-80
2023/01/21 09:06:27;;;;;;;34.13;17.12;;;;;;;4.99;72.91;99659.53;4258064;33;34032;-80
2023/01/21 09:08:55;;;;;;;30.80;16.83;;;;;;;6.63;67.05;99651.59;4259433;33;33814;-80
2023/01/21 09:11:24;;;;;;;27.70;15.13;;;;;;;6.53;67.11;99653.53;4258576;33;33955;-79
2023/01/21 09:13:51;;;;;;;28.52;13.98;;;;;;;6.41;68.60;99652.06;4259143;33;33904;-82
2023/01/21 09:16:21;;;;;;;22.37;12.85;;;;;;;9.03;59.10;99642.81;4259936;33;33812;-78
2023/01/21 09:18:49;;;;;;;25.35;12.52;;;;;;;7.72;61.39;99648.16;4257148;33;34695;-80
2023/01/21 09:21:16;;;;;;;22.60;12.60;;;;;;;8.97;58.31;99638.22;4251922;33;33696;-79
2023/01/21 09:23:44;;;;;;;26.33;13.18;;;;;;;7.31;62.61;99644.22;4259503;33;33813;-81
2023/01/21 09:26:18;;;;;;;21.58;11.95;;;;;;;9.42;57.51;99637.75;4254705;33;33592;-80
2023/01/21 09:28:51;;;;;;;24.27;13.18;;;;;;;10.43;53.94;99641.44;4258763;33;33949;-79
2023/01/21 09:31:23;;;;;;;19.20;9.95;;;;;;;10.26;54.30;99648.44;4251490;33;33778;-80
2023/01/21 09:33:52;;;;;;;19.83;10.38;;;;;;;11.27;50.72;99640.50;4254810;33;32780;-79
2023/01/21 09:36:23;;;;;;;22.02;10.40;;;;;;;11.35;50.45;99639.09;4255533;33;34139;-82
2023/01/21 09:38:51;;;;;;;22.40;11.55;;;;;;;10.84;51.03;99641.41;4243659;33;34710;-81
2023/01/21 09:41:37;;;;;;;20.25;10.85;;;;;;;9.65;55.51;99650.03;4259687;33;33873;-80
2023/01/21 09:44:28;;;;;;;20.88;11.12;;;;;;;10.59;52.69;99653.31;4257800;33;33944;-78
2023/01/21 09:47:14;;;;;;;16.65;8.90;;;;;;;9.51;55.30;99648.53;4257970;33;34459;-81
2023/01/21 09:49:48;;;;;;;19.92;10.35;;;;;;;10.21;54.08;99645.63;4259817;33;33722;-79
2023/01/21 09:52:26;;;;;;;17.73;9.15;;;;;;;9.57;54.49;99637.59;4257434;33;32652;-79
2023/01/21 09:54:57;;;;;;;20.75;10.80;;;;;;;10.14;53.80;99637.53;4245983;33;34016;-78
2023/01/21 09:57:38;;;;;;;21.70;10.10;;;;;;;9.13;56.77;99650.16;4246745;33;34609;-82
2023/01/21 10:00:43;;;;;;;20.45;10.32;;;;;;;9.37;57.10;99647.00;4259026;33;33500;-82
2023/01/21 10:03:39;;;;;;;18.80;9.93;;;;;;;9.51;56.04;99648.53;4259269;33;33631;-78
2023/01/21 10:06:22;;;;;;;25.85;11.73;;;;;;;7.85;61.84;99653.16;4259617;33;34077;-81
2023/01/21 10:09:20;;;;;;;28.20;12.48;;;;;;;8.91;58.75;99643.09;4260085;33;33704;-79
2023/01/21 10:11:56;;;;;;;27.80;12.02;;;;;;;8.77;58.84;99644.09;4245961;33;33965;-81
2023/01/21 10:14:30;;;;;;;20.23;11.45;;;;;;;7.86;61.82;99645.50;4260227;33;33738;-80
2023/01/21 10:17:25;;;;;;;19.30;10.43;;;;;;;7.39;64.55;99651.56;4259102;33;33956;-78
2023/01/21 10:20:00;;;;;;;22.50;10.98;;;;;;;7.36;65.16;99658.22;4246661;33;32151;-80
2023/01/21 10:22:28;;;;;;;19.00;9.50;;;;;;;8.89;60.11;99654.19;4261204;33;33941;-77
2023/01/21 10:24:57;;;;;;;17.30;9.20;;;;;;;7.97;62.27;99652.91;4247811;33;33697;-79
2023/01/21 10:27:26;;;;;;;25.23;12.00;;;;;;;7.28;64.83;99663.88;4260767;33;33869;-82
2023/01/21 10:29:56;;;;;;;24.63;11.02;;;;;;;8.43;60.34;99648.47;4259235;33;33953;-78
2023/01/21 10:32:26;;;;;;;22.00;10.30;;;;;;;7.03;65.18;99663.28;4248141;33;32414;-82
2023/01/21 10:34:55;;;;;;;20.15;9.48;;;;;;;6.18;69.53;99665.22;4260829;33;34069;-79
2023/01/21 10:37:41;;;;;;;18.77;10.02;;;;;;;7.07;65.57;99665.25;4259486;33;33713;-81
2023/01/21 10:40:42;;;;;;;20.25;10.48;;;;;;;5.85;71.48;99670.97;4261366;33;34177;-80
2023/01/21 10:43:15;;;;;;;20.10;9.32;;;;;;;7.33;65.49;99668.38;4259111;33;33965;-80
2023/01/21 10:45:54;;;;;;;21.02;9.40;;;;;;;8.37;61.29;99657.56;4260755;33;33460;-79
2023/01/21 10:48:36;;;;;;;21.65;10.23;;;;;;;8.27;62.41;99666.53;4261098;33;33774;-81
2023/01/21 10:51:20;;;;;;;23.10;10.88;;;;;;;7.38;64.18;99664.34;4259668;33;33816;-81
2023/01/21 10:53:59;;;;;;;21.33;10.40;;;;;;;8.27;61.96;99669.12;4239443;33;34435;-80
2023/01/21 10:56:33;;;;;;;20.00;10.40;;;;;;;7.78;62.94;99664.81;4246252;33;33692;-78
2023/01/21 10:59:07;;;;;;;21.80;10.93;;;;;;;7.80;63.25;99668.41;4259376;33;34486;-79
2023/01/21 11:01:57;;;;;;;20.75;10.25;;;;;;;7.35;65.23;99656.47;4247477;33;33571;-79
2023/01/21 11:04:27;;;;;;;20.17;10.20;;;;;;;7.73;63.78;99666.28;4259703;33;34149;-82
2023/01/21 11:07:06;;;;;;;17.73;10.02;;;;;;;7.96;62.24;99659.78;4259427;33;33832;-79
2023/01/21 11:09:37;;;;;;;25.77;12.40;;;;;;;7.75;63.90;99656.94;4256938;33;33465;-78
2023/01/21 11:12:05;;;;;;;20.98;11.65;;;;;;;8.19;62.81;99657.50;4254441;33;34835;-80
2023/01/21 11:14:32;;;;;;;19.98;10.82;;;;;;;9.07;59.72;99651.59;4246919;33;33936;-78
2023/01/21 11:17:00;;;;;;;22.85;11.73;;;;;;;8.60;60.34;99659.66;4258695;33;33225;-82
2023/01/21 11:19:31;;;;;;;23.17;11.98;;;;;;;8.71;61.44;99660.22;4260439;33;33685;-82
2023/01/21 11:22:19;;;;;;;24.40;12.85;;;;;;;9.50;59.07;99657.06;4260131;33;33906;-79
2023/01/21 11:24:49;;;;;;;19.00;9.95;;;;;;;8.27;63.08;99658.81;4245221;33;33909;-80
2023/01/21 11:27:18;;;;;;;25.00;11.07;;;;;;;8.70;61.50;99653.25;4259517;33;33565;-79
2023/01/21 11:29:48;;;;;;;20.98;11.02;;;;;;;7.99;62.42;99649.59;4259260;33;34163;-79
2023/01/21 11:32:21;;;;;;;17.67;9.18;;;;;;;8.36;61.67;99650.63;4260287;33;33581;-80
2023/01/21 11:34:51;;;;;;;17.35;9.25;;;;;;;9.55;58.23;99645.25;4261312;33;33607;-83
2023/01/21 11:37:26;;;;;;;33.33;17.25;;;;;;;10.63;54.43;99647.44;4246184;33;35350;-78
2023/01/21 11:39:54;;;;;;;60.63;31.27;;;;;;;9.59;56.48;99639.41;4257463;33;33847;-80
2023/01/21 11:42:22;;;;;;;28.67;14.38;;;;;;;9.32;57.69;99646.78;4247368;33;34918;-82
2023/01/21 11:44:56;;;;;;;32.92;21.60;;;;;;;7.31;64.16;99644.22;4247305;33;33876;-80
2023/01/21 11:47:37;;;;;;;18.77;9.65;;;;;;;8.52;60.60;99642.00;4257260;33;33492;-80